createdAt,value
2019-04-25T00:00:40.570Z,69.37
2019-04-25T00:03:13.257Z,69.14
2019-04-25T00:05:48.222Z,70.95
2019-04-25T00:08:21.501Z,71.07
2019-04-25T00:10:53.469Z,70.60
2019-04-25T00:13:27.095Z,67.71
2019-04-25T00:15:58.872Z,66.31
2019-04-25T00:18:31.900Z,65.07
2019-04-25T00:21:12.184Z,65.89
2019-04-25T00:23:47.102Z,65.00
2019-04-25T00:26:40.161Z,64.33
2019-04-25T00:29:14.246Z,64.93
2019-04-25T00:31:47.227Z,65.02
2019-04-25T00:34:19.189Z,65.81
2019-04-25T00:36:51.562Z,67.00
2019-04-25T00:39:24.692Z,68.66
2019-04-25T00:41:56.965Z,68.80
2019-04-25T00:44:28.823Z,69.66
2019-04-25T00:47:02.433Z,69.60
2019-04-25T00:49:34.311Z,69.15
2019-04-25T00:52:06.185Z,68.76
2019-04-25T00:54:38.013Z,70.07
2019-04-25T00:57:09.819Z,70.41
2019-04-25T00:59:56.375Z,69.89
2019-04-25T01:02:35.038Z,70.30
2019-04-25T01:05:07.537Z,69.83
2019-04-25T01:07:39.353Z,68.51
2019-04-25T01:10:11.886Z,67.23
2019-04-25T01:12:44.579Z,66.28
2019-04-25T01:15:16.593Z,66.24
2019-04-25T01:17:48.855Z,63.14
2019-04-25T01:20:21.009Z,63.51
2019-04-25T01:22:54.316Z,63.23
2019-04-25T01:25:38.352Z,63.72
2019-04-25T01:28:00.882Z,64.50
2019-04-25T01:30:33.974Z,64.84
2019-04-25T01:33:06.503Z,65.08
2019-04-25T01:35:51.308Z,65.17
2019-04-25T01:38:49.080Z,66.96
2019-04-25T01:41:44.137Z,68.68
2019-04-25T01:44:35.007Z,69.49
2019-04-25T01:47:08.596Z,68.16
2019-04-25T01:49:40.367Z,69.22
2019-04-25T01:52:13.675Z,69.72
2019-04-25T01:54:45.736Z,69.79
2019-04-25T01:57:17.482Z,69.53
2019-04-25T01:59:49.868Z,69.30
2019-04-25T02:02:23.803Z,69.37
2019-04-25T02:04:57.975Z,70.13
2019-04-25T02:07:29.095Z,69.24
2019-04-25T02:10:03.811Z,70.64
2019-04-25T02:12:43.989Z,69.69
2019-04-25T02:15:17.584Z,69.30
2019-04-25T02:17:50.958Z,69.10
2019-04-25T02:20:23.905Z,69.53
2019-04-25T02:22:56.453Z,69.46
2019-04-25T02:25:28.453Z,69.48
2019-04-25T02:28:02.337Z,69.18
2019-04-25T02:30:35.631Z,68.92
2019-04-25T02:33:09.255Z,69.08
2019-04-25T02:35:43.958Z,69.22
2019-04-25T02:38:16.923Z,69.60
2019-04-25T02:40:48.492Z,68.73
2019-04-25T02:43:21.368Z,69.37
2019-04-25T02:46:11.001Z,69.57
2019-04-25T02:49:09.175Z,71.44
2019-04-25T02:51:45.119Z,71.87
2019-04-25T02:54:16.563Z,72.31
2019-04-25T02:56:48.269Z,71.63
2019-04-25T02:59:19.988Z,71.39
2019-04-25T03:01:54.159Z,72.17
2019-04-25T03:04:25.325Z,72.61
2019-04-25T03:06:58.401Z,72.02
2019-04-25T03:09:30.447Z,72.09
2019-04-25T03:12:04.892Z,71.72
2019-04-25T03:14:35.751Z,71.89
2019-04-25T03:17:09.743Z,72.49
2019-04-25T03:20:06.702Z,73.38
2019-04-25T03:22:36.075Z,73.58
2019-04-25T03:25:11.521Z,73.61
2019-04-25T03:27:44.092Z,74.30
2019-04-25T03:30:25.347Z,74.49
2019-04-25T03:32:56.394Z,74.56
2019-04-25T03:35:29.331Z,74.46
2019-04-25T03:38:02.330Z,74.92
2019-04-25T03:40:34.159Z,75.05
2019-04-25T03:43:07.112Z,74.44
2019-04-25T03:45:38.893Z,73.64
2019-04-25T03:48:13.985Z,73.59
2019-04-25T03:50:45.683Z,73.47
2019-04-25T03:53:19.321Z,73.01
2019-04-25T03:55:51.046Z,72.95
2019-04-25T03:58:23.993Z,73.95
2019-04-25T04:00:55.836Z,71.59
2019-04-25T04:03:27.544Z,70.68
2019-04-25T04:06:00.718Z,71.23
2019-04-25T04:08:34.310Z,71.70
2019-04-25T04:11:07.396Z,72.21
2019-04-25T04:13:39.322Z,72.19
2019-04-25T04:16:13.482Z,73.67
2019-04-25T04:18:46.447Z,74.24
2019-04-25T04:21:36.543Z,74.60
2019-04-25T04:24:14.132Z,74.75
2019-04-25T04:27:06.898Z,75.19
2019-04-25T04:29:39.144Z,74.51
2019-04-25T04:32:10.867Z,74.65
2019-04-25T04:34:45.177Z,74.76
2019-04-25T04:37:16.346Z,75.47
2019-04-25T04:39:48.469Z,74.81
2019-04-25T04:42:20.704Z,74.99
2019-04-25T04:44:53.435Z,74.73
2019-04-25T04:47:25.427Z,74.60
2019-04-25T04:49:57.572Z,74.46
2019-04-25T04:52:30.970Z,74.67
2019-04-25T04:55:08.306Z,74.95
2019-04-25T04:57:38.013Z,74.58
2019-04-25T05:00:10.947Z,74.43
2019-04-25T05:02:56.281Z,74.13
2019-04-25T05:05:57.849Z,73.79
2019-04-25T05:08:35.132Z,73.85
2019-04-25T05:11:06.849Z,74.09
2019-04-25T05:13:39.734Z,74.08
2019-04-25T05:16:12.537Z,74.22
2019-04-25T05:18:46.515Z,74.29
2019-04-25T05:21:18.310Z,74.20
2019-04-25T05:23:52.269Z,74.63
2019-04-25T05:26:25.037Z,74.97
2019-04-25T05:28:58.322Z,75.13
2019-04-25T05:31:45.634Z,74.84
2019-04-25T05:34:19.627Z,74.97
2019-04-25T05:36:51.558Z,74.98
2019-04-25T05:39:24.072Z,74.90
2019-04-25T05:42:18.520Z,74.60
2019-04-25T05:44:50.467Z,74.99
2019-04-25T05:47:26.019Z,75.18
2019-04-25T05:49:58.130Z,75.40
2019-04-25T05:52:31.487Z,75.77
2019-04-25T05:55:03.970Z,75.41
2019-04-25T05:57:45.495Z,74.75
2019-04-25T06:00:10.535Z,74.59
2019-04-25T06:02:42.307Z,74.70
2019-04-25T06:05:14.259Z,74.09
2019-04-25T06:07:45.989Z,73.83
2019-04-25T06:10:30.420Z,73.44
2019-04-25T06:13:29.885Z,73.91
2019-04-25T06:16:09.622Z,74.82
2019-04-25T06:18:47.908Z,75.54
2019-04-25T06:21:21.459Z,75.27
2019-04-25T06:24:13.325Z,75.07
2019-04-25T06:27:01.078Z,74.82
2019-04-25T06:29:34.936Z,74.98
2019-04-25T06:32:08.603Z,74.49
2019-04-25T06:34:40.305Z,74.54
2019-04-25T06:37:13.755Z,74.40
2019-04-25T06:39:45.618Z,74.89
2019-04-25T06:42:17.349Z,76.00
2019-04-25T06:44:57.983Z,76.04
2019-04-25T06:47:51.383Z,75.33
2019-04-25T06:50:27.825Z,69.78
2019-04-25T06:53:03.512Z,65.90
2019-04-25T06:55:35.774Z,63.01
2019-04-25T06:58:12.048Z,58.88
2019-04-25T07:00:55.788Z,57.57
2019-04-25T07:03:15.624Z,55.21
2019-04-25T07:05:47.753Z,58.60
2019-04-25T07:08:19.850Z,60.82
2019-04-25T07:10:51.615Z,62.83
2019-04-25T07:13:24.786Z,67.51
2019-04-25T07:15:56.896Z,70.51
2019-04-25T07:18:33.121Z,67.17
2019-04-25T07:21:04.432Z,70.06
2019-04-25T07:23:36.511Z,70.29
2019-04-25T07:26:15.014Z,69.46
2019-04-25T07:29:05.390Z,69.58
2019-04-25T07:31:54.667Z,69.40
2019-04-25T07:34:27.421Z,67.66
2019-04-25T07:36:59.221Z,65.13
2019-04-25T07:39:34.420Z,61.49
2019-04-25T07:42:06.619Z,57.36
2019-04-25T07:44:49.938Z,60.05
2019-04-25T07:47:11.880Z,63.28
2019-04-25T07:49:43.663Z,64.36
2019-04-25T07:52:16.404Z,65.35
2019-04-25T07:54:48.180Z,64.82
2019-04-25T07:57:19.927Z,64.58
2019-04-25T07:59:53.603Z,63.51
2019-04-25T08:02:25.309Z,63.65
2019-04-25T08:05:00.132Z,55.49
2019-04-25T08:07:33.402Z,52.14
2019-04-25T08:10:06.411Z,49.15
2019-04-25T08:12:39.363Z,54.59
2019-04-25T08:15:30.280Z,60.48
2019-04-25T08:18:06.992Z,64.24
2019-04-25T08:20:38.797Z,65.48
2019-04-25T08:23:10.652Z,65.06
2019-04-25T08:25:43.349Z,64.58
2019-04-25T08:28:15.250Z,64.63
2019-04-25T08:30:47.016Z,60.33
2019-04-25T08:33:19.974Z,56.52
2019-04-25T08:36:04.229Z,51.02
2019-04-25T08:38:25.424Z,53.28
2019-04-25T08:41:01.991Z,55.48
2019-04-25T08:43:39.093Z,55.17
2019-04-25T08:46:10.457Z,57.64
2019-04-25T08:49:02.095Z,56.72
2019-04-25T08:51:36.081Z,55.66
2019-04-25T08:54:29.680Z,54.26
2019-04-25T08:57:04.321Z,57.08
2019-04-25T08:59:55.456Z,59.29
2019-04-25T09:02:44.978Z,58.90
2019-04-25T09:05:33.378Z,57.57
2019-04-25T09:08:05.587Z,59.33
2019-04-25T09:10:38.952Z,61.98
2019-04-25T09:13:11.079Z,63.54
2019-04-25T09:15:45.480Z,60.43
2019-04-25T09:18:16.676Z,53.54
2019-04-25T09:20:48.424Z,51.68
2019-04-25T09:23:20.181Z,47.30
2019-04-25T09:25:54.461Z,45.58
2019-04-25T09:28:26.256Z,48.93
2019-04-25T09:30:58.034Z,51.51
2019-04-25T09:33:29.934Z,51.94
2019-04-25T09:36:04.830Z,53.85
2019-04-25T09:38:37.040Z,56.86
2019-04-25T09:41:08.775Z,56.60
2019-04-25T09:43:40.551Z,57.76
2019-04-25T09:46:17.700Z,55.02
2019-04-25T09:49:07.432Z,51.25
2019-04-25T09:51:45.803Z,48.19
2019-04-25T09:54:38.122Z,47.10
2019-04-25T09:57:29.502Z,49.68
2019-04-25T10:00:01.225Z,50.15
2019-04-25T10:02:34.111Z,48.39
2019-04-25T10:05:06.040Z,49.02
2019-04-25T10:07:38.495Z,48.62
2019-04-25T10:10:10.263Z,46.65
2019-04-25T10:12:44.222Z,45.62
2019-04-25T10:15:50.449Z,47.12
2019-04-25T10:18:23.365Z,43.86
2019-04-25T10:20:55.461Z,45.98
2019-04-25T10:23:28.475Z,50.28
2019-04-25T10:26:00.194Z,50.70
2019-04-25T10:28:33.480Z,51.50
2019-04-25T10:31:05.531Z,52.32
2019-04-25T10:33:37.293Z,51.00
2019-04-25T10:36:10.031Z,49.39
2019-04-25T10:38:42.332Z,50.86
2019-04-25T10:41:14.633Z,46.66
2019-04-25T10:43:48.385Z,49.46
2019-04-25T10:46:20.511Z,47.62
2019-04-25T10:48:55.960Z,46.63
2019-04-25T10:51:26.213Z,42.00
2019-04-25T10:53:57.954Z,43.61
2019-04-25T10:56:29.732Z,43.91
2019-04-25T10:59:04.276Z,45.93
2019-04-25T11:01:36.232Z,47.42
2019-04-25T11:04:17.416Z,50.59
2019-04-25T11:06:51.823Z,51.54
2019-04-25T11:09:30.486Z,54.97
2019-04-25T11:12:02.210Z,60.79
2019-04-25T11:14:35.569Z,61.96
2019-04-25T11:17:07.279Z,55.03
2019-04-25T11:19:44.055Z,51.27
2019-04-25T11:22:15.644Z,51.01
2019-04-25T11:24:48.559Z,50.36
2019-04-25T11:27:23.763Z,51.01
2019-04-25T11:30:08.620Z,48.94
2019-04-25T11:32:29.069Z,49.29
2019-04-25T11:35:03.557Z,44.61
2019-04-25T11:37:35.876Z,46.33
2019-04-25T11:40:15.676Z,43.86
2019-04-25T11:42:57.852Z,46.21
2019-04-25T11:45:29.623Z,47.59
2019-04-25T11:48:01.978Z,48.30
2019-04-25T11:50:37.028Z,45.97
2019-04-25T11:53:08.429Z,48.24
2019-04-25T11:55:40.538Z,47.33
2019-04-25T11:58:14.151Z,50.05
2019-04-25T12:00:47.347Z,49.78
2019-04-25T12:03:19.161Z,50.84
2019-04-25T12:05:54.777Z,48.98
2019-04-25T12:08:26.503Z,50.60
2019-04-25T12:10:58.241Z,51.56
2019-04-25T12:13:32.375Z,51.54
2019-04-25T12:16:04.206Z,51.26
2019-04-25T12:18:37.527Z,49.79
2019-04-25T12:21:09.261Z,50.73
2019-04-25T12:23:40.961Z,51.56
2019-04-25T12:26:14.603Z,50.79
2019-04-25T12:28:47.240Z,52.41
2019-04-25T12:31:19.916Z,55.92
2019-04-25T12:33:54.897Z,52.30
2019-04-25T12:36:29.283Z,52.32
2019-04-25T12:39:01.159Z,50.48
2019-04-25T12:41:34.477Z,51.47
2019-04-25T12:44:43.454Z,49.57
2019-04-25T12:47:20.965Z,50.54
2019-04-25T12:49:56.107Z,48.50
2019-04-25T12:52:28.929Z,48.92
2019-04-25T12:55:03.949Z,47.65
2019-04-25T12:57:35.912Z,49.79
2019-04-25T13:00:09.554Z,50.75
2019-04-25T13:02:41.570Z,48.70
2019-04-25T13:05:16.455Z,49.26
2019-04-25T13:07:49.452Z,51.63
2019-04-25T13:10:23.615Z,53.33
2019-04-25T13:12:55.720Z,52.08
2019-04-25T13:15:28.301Z,52.76
2019-04-25T13:18:00.477Z,51.65
2019-04-25T13:20:32.216Z,54.08
2019-04-25T13:23:05.771Z,52.91
2019-04-25T13:25:37.757Z,50.20
2019-04-25T13:28:24.356Z,50.24
2019-04-25T13:31:14.856Z,49.49
2019-04-25T13:34:11.644Z,47.86
2019-04-25T13:36:44.312Z,47.95
2019-04-25T13:39:18.683Z,50.60
2019-04-25T13:41:50.431Z,50.27
2019-04-25T13:44:24.346Z,50.48
2019-04-25T13:46:56.186Z,51.23
2019-04-25T13:49:27.927Z,50.82
2019-04-25T13:52:02.005Z,50.39
2019-04-25T13:54:35.430Z,50.29
2019-04-25T13:57:07.178Z,50.48
2019-04-25T13:59:38.949Z,50.66
2019-04-25T14:02:11.108Z,51.64
2019-04-25T14:04:44.192Z,50.83
2019-04-25T14:07:16.334Z,51.49
2019-04-25T14:09:53.259Z,52.68
2019-04-25T14:12:26.888Z,62.35
2019-04-25T14:14:58.962Z,63.94
2019-04-25T14:17:46.314Z,64.16
2019-04-25T14:20:48.491Z,64.46
2019-04-25T14:23:23.529Z,62.09
2019-04-25T14:25:55.125Z,61.14
2019-04-25T14:28:30.168Z,61.87
2019-04-25T14:31:02.465Z,59.28
2019-04-25T14:33:35.408Z,59.10
2019-04-25T14:36:07.521Z,60.52
2019-04-25T14:38:39.571Z,59.99
2019-04-25T14:41:12.042Z,57.93
2019-04-25T14:43:46.410Z,57.11
2019-04-25T14:46:17.913Z,58.53
2019-04-25T14:48:50.315Z,58.77
2019-04-25T14:51:22.967Z,60.32
2019-04-25T14:53:58.650Z,61.55
2019-04-25T14:56:40.630Z,61.42
2019-04-25T14:59:12.626Z,61.67
2019-04-25T15:01:45.396Z,63.35
2019-04-25T15:04:18.107Z,63.40
2019-04-25T15:06:50.833Z,64.93
2019-04-25T15:09:23.492Z,65.20
2019-04-25T15:11:55.374Z,64.58
2019-04-25T15:14:27.163Z,64.62
2019-04-25T15:17:00.581Z,65.58
2019-04-25T15:19:33.964Z,65.96
2019-04-25T15:22:07.067Z,64.91
2019-04-25T15:24:40.748Z,63.14
2019-04-25T15:27:12.735Z,63.88
2019-04-25T15:29:44.615Z,62.84
2019-04-25T15:32:19.644Z,63.43
2019-04-25T15:35:00.103Z,63.61
2019-04-25T15:37:37.230Z,61.97
2019-04-25T15:40:18.659Z,62.17
2019-04-25T15:43:27.712Z,61.76
2019-04-25T15:46:30.468Z,62.44
2019-04-25T15:49:03.024Z,62.31
2019-04-25T15:51:35.554Z,64.53
2019-04-25T15:54:07.647Z,66.64
2019-04-25T15:56:39.582Z,65.37
2019-04-25T15:59:12.720Z,67.30
2019-04-25T16:01:44.560Z,67.51
2019-04-25T16:04:19.140Z,68.15
2019-04-25T16:06:51.549Z,68.57
2019-04-25T16:09:24.847Z,67.52
2019-04-25T16:11:58.130Z,68.21
2019-04-25T16:14:31.344Z,69.46
2019-04-25T16:17:03.765Z,68.25
2019-04-25T16:19:38.339Z,67.68
2019-04-25T16:22:12.192Z,68.09
2019-04-25T16:24:46.667Z,68.57
2019-04-25T16:27:19.891Z,67.87
2019-04-25T16:29:52.415Z,67.92
2019-04-25T16:32:26.059Z,68.31
2019-04-25T16:34:59.903Z,69.73
2019-04-25T16:37:32.504Z,68.12
2019-04-25T16:40:06.078Z,65.87
2019-04-25T16:42:38.486Z,67.25
2019-04-25T16:45:11.148Z,67.90
2019-04-25T16:47:43.435Z,67.31
2019-04-25T16:50:16.187Z,67.15
2019-04-25T16:52:49.295Z,65.33
2019-04-25T16:55:24.122Z,66.22
2019-04-25T16:57:56.159Z,66.19
2019-04-25T17:00:46.354Z,65.49
2019-04-25T17:03:18.897Z,65.13
2019-04-25T17:05:53.192Z,65.66
2019-04-25T17:08:25.186Z,65.42
2019-04-25T17:10:57.049Z,64.91
2019-04-25T17:13:32.131Z,64.74
2019-04-25T17:16:14.728Z,64.53
2019-04-25T17:18:55.842Z,64.41
2019-04-25T17:21:27.907Z,64.23
2019-04-25T17:23:59.731Z,64.43
2019-04-25T17:26:32.732Z,63.90
2019-04-25T17:29:07.858Z,63.73
2019-04-25T17:32:08.390Z,63.77
2019-04-25T17:35:09.973Z,63.58
2019-04-25T17:38:06.592Z,64.53
2019-04-25T17:40:38.479Z,64.37
2019-04-25T17:43:11.480Z,63.19
2019-04-25T17:45:44.220Z,63.75
2019-04-25T17:48:16.096Z,63.78
2019-04-25T17:50:49.857Z,64.60
2019-04-25T17:53:24.824Z,66.17
2019-04-25T17:55:57.532Z,66.99
2019-04-25T17:58:30.573Z,67.39
2019-04-25T18:01:02.793Z,68.70
2019-04-25T18:03:35.344Z,69.08
2019-04-25T18:06:09.457Z,68.06
2019-04-25T18:08:41.768Z,66.90
2019-04-25T18:11:14.288Z,66.35
2019-04-25T18:13:46.680Z,67.45
2019-04-25T18:16:32.590Z,69.00
2019-04-25T18:19:30.916Z,69.11
2019-04-25T18:22:10.739Z,69.19
2019-04-25T18:25:01.144Z,70.32
2019-04-25T18:27:50.840Z,70.77
2019-04-25T18:30:23.697Z,70.53
2019-04-25T18:33:10.745Z,69.85
2019-04-25T18:35:42.694Z,69.83
2019-04-25T18:38:27.532Z,69.12
2019-04-25T18:41:05.972Z,68.93
2019-04-25T18:43:47.165Z,68.03
2019-04-25T18:46:30.333Z,69.01
2019-04-25T18:49:02.803Z,68.79
2019-04-25T18:51:36.276Z,68.51
2019-04-25T18:54:31.305Z,69.18
2019-04-25T18:57:33.096Z,69.31
2019-04-25T19:00:42.146Z,68.46
2019-04-25T19:03:29.317Z,68.04
2019-04-25T19:06:04.206Z,68.93
2019-04-25T19:08:36.154Z,69.80
2019-04-25T19:11:08.413Z,68.43
2019-04-25T19:13:41.060Z,69.47
2019-04-25T19:16:15.050Z,69.25
2019-04-25T19:18:49.155Z,69.24
2019-04-25T19:21:21.623Z,70.36
2019-04-25T19:23:53.703Z,71.68
2019-04-25T19:26:26.090Z,71.22
2019-04-25T19:28:58.535Z,69.43
2019-04-25T19:31:30.483Z,70.43
2019-04-25T19:34:10.718Z,70.42
2019-04-25T19:36:42.776Z,70.50
2019-04-25T19:39:20.558Z,70.83
2019-04-25T19:42:16.197Z,69.72
2019-04-25T19:44:49.891Z,70.58
2019-04-25T19:47:24.526Z,70.23
2019-04-25T19:49:57.478Z,71.11
2019-04-25T19:52:39.987Z,70.51
2019-04-25T19:55:17.794Z,70.72
2019-04-25T19:57:52.545Z,70.92
2019-04-25T20:00:25.132Z,70.78
2019-04-25T20:03:14.421Z,71.24
2019-04-25T20:05:55.352Z,71.61
2019-04-25T20:08:35.852Z,72.08
2019-04-25T20:11:12.700Z,71.39
2019-04-25T20:13:45.792Z,71.62
2019-04-25T20:16:17.690Z,71.49
2019-04-25T20:18:49.941Z,71.50
2019-04-25T20:21:23.776Z,71.50
2019-04-25T20:23:55.965Z,71.33
2019-04-25T20:26:29.665Z,71.92
2019-04-25T20:29:01.938Z,71.70
2019-04-25T20:31:34.025Z,71.67
2019-04-25T20:34:07.075Z,72.03
2019-04-25T20:36:39.663Z,72.29
2019-04-25T20:39:12.043Z,71.15
2019-04-25T20:41:45.432Z,71.50
2019-04-25T20:44:18.918Z,71.23
2019-04-25T20:46:54.768Z,71.52
2019-04-25T20:49:29.033Z,71.42
2019-04-25T20:52:01.641Z,71.29
2019-04-25T20:54:34.176Z,71.39
2019-04-25T20:57:08.376Z,71.89
2019-04-25T20:59:41.672Z,72.98
2019-04-25T21:02:14.272Z,73.25
2019-04-25T21:04:46.273Z,72.75
2019-04-25T21:07:19.209Z,71.79
2019-04-25T21:09:51.365Z,71.97
2019-04-25T21:12:23.164Z,71.86
2019-04-25T21:15:32.155Z,71.75
2019-04-25T21:18:23.478Z,71.60
2019-04-25T21:20:55.573Z,71.58
2019-04-25T21:23:29.183Z,72.05
2019-04-25T21:26:01.309Z,71.65
2019-04-25T21:28:33.176Z,70.75
2019-04-25T21:31:05.116Z,69.47
2019-04-25T21:33:37.294Z,70.05
2019-04-25T21:36:10.437Z,70.08
2019-04-25T21:38:44.131Z,70.01
2019-04-25T21:41:34.114Z,68.57
2019-04-25T21:44:06.962Z,68.50
2019-04-25T21:46:43.666Z,69.05
2019-04-25T21:49:18.605Z,69.13
2019-04-25T21:51:50.480Z,68.91
2019-04-25T21:54:22.353Z,68.99
2019-04-25T21:56:56.015Z,68.78
2019-04-25T21:59:28.099Z,68.93
2019-04-25T22:02:00.603Z,69.59
2019-04-25T22:04:39.232Z,70.42
2019-04-25T22:07:08.967Z,70.46
2019-04-25T22:09:41.831Z,71.13
2019-04-25T22:12:15.252Z,71.51
2019-04-25T22:14:47.254Z,71.83
2019-04-25T22:17:20.448Z,72.50
2019-04-25T22:19:52.832Z,72.61
2019-04-25T22:22:26.651Z,72.19
2019-04-25T22:24:58.611Z,72.80
2019-04-25T22:27:36.536Z,73.13
2019-04-25T22:30:09.117Z,73.01
2019-04-25T22:32:50.268Z,73.00
2019-04-25T22:35:45.941Z,73.22
2019-04-25T22:38:17.859Z,73.23
2019-04-25T22:40:49.715Z,72.81
2019-04-25T22:43:22.070Z,73.62
2019-04-25T22:45:54.407Z,74.27
2019-04-25T22:48:45.280Z,74.36
2019-04-25T22:51:18.781Z,73.90
2019-04-25T22:53:50.557Z,73.88
2019-04-25T22:56:22.330Z,74.01
2019-04-25T22:58:54.165Z,74.17
2019-04-25T23:01:33.387Z,74.17
2019-04-25T23:04:09.920Z,74.44
2019-04-25T23:06:42.296Z,74.36
2019-04-25T23:09:14.237Z,74.27
2019-04-25T23:11:48.235Z,74.42
2019-04-25T23:14:21.008Z,74.56
2019-04-25T23:19:35.962Z,75.06
2019-04-25T23:22:07.717Z,74.84
2019-04-25T23:24:43.905Z,74.76
2019-04-25T23:27:33.952Z,75.04
2019-04-25T23:30:06.689Z,75.01
2019-04-25T23:32:38.799Z,75.32
2019-04-25T23:35:24.300Z,75.40
2019-04-25T23:37:43.979Z,75.32
2019-04-25T23:40:15.882Z,75.28
2019-04-25T23:42:47.686Z,74.97
2019-04-25T23:45:22.266Z,74.62
2019-04-25T23:47:54.007Z,75.16
2019-04-25T23:50:26.002Z,75.18
2019-04-25T23:52:58.170Z,75.06
2019-04-25T23:55:30.528Z,75.23
2019-04-25T23:58:02.253Z,74.83
